Time;durP1;ratioP1;P1;durP2;ratioP2;P2;SDS_P1;SDS_P2;PMS_P1;PMS_P2;Temp;Humidity;BMP_temperature;BMP_pressure;BME280_temperature;BME280_humidity;BME280_pressure;Samples;Min_cycle;Max_cycle;Signal;HPM_P1;HPM_P2
2023/12/09 00:01:00;;;;;;;1.95;1.40;;;;;;;16.02;59.64;98557.34;2100586;28;20093;-69
2023/12/09 00:02:02;;;;;;;2.20;1.60;;;;;;;16.03;59.66;98562.50;2092327;28;20052;-68
2023/12/09 00:03:04;;;;;;;2.10;1.67;;;;;;;16.05;59.62;98565.00;2102844;28;20059;-69
2023/12/09 00:04:06;;;;;;;2.80;1.73;;;;;;;16.04;59.55;98568.66;2093410;28;20089;-68
2023/12/09 00:05:07;;;;;;;1.52;1.30;;;;;;;16.05;59.56;98565.81;2094973;28;20131;-68
2023/12/09 00:06:10;;;;;;;1.45;1.33;;;;;;;16.03;59.52;98561.69;2090223;28;20446;-70
2023/12/09 00:07:11;;;;;;;2.72;1.73;;;;;;;16.02;59.49;98560.84;2092451;28;20052;-69
2023/12/09 00:08:12;;;;;;;;;;;;;;;15.92;59.86;98554.97;2096984;28;20109;-68
2023/12/09 00:09:14;;;;;;;1.75;1.55;;;;;;;15.94;59.76;98557.47;2099386;28;20608;-69
2023/12/09 00:10:16;;;;;;;2.25;1.52;;;;;;;15.94;59.72;98554.78;2097486;28;20063;-68
2023/12/09 00:11:16;;;;;;;1.95;1.20;;;;;;;15.98;59.87;98556.06;2097795;28;20090;-69
2023/12/09 00:12:18;;;;;;;;;;;;;;;15.88;59.90;98558.19;2100364;28;20044;-68
2023/12/09 00:13:19;;;;;;;1.58;1.30;;;;;;;15.91;59.89;98563.16;2101259;28;20563;-68
2023/12/09 00:14:21;;;;;;;;;;;;;;;15.84;59.94;98558.56;2102938;28;20044;-68
2023/12/09 00:15:23;;;;;;;2.42;1.38;;;;;;;15.89;59.80;98560.69;2100609;28;19927;-70
2023/12/09 00:16:25;;;;;;;3.97;1.52;;;;;;;15.91;59.85;98558.66;2100736;28;20052;-68
2023/12/09 00:17:26;;;;;;;1.65;1.05;;;;;;;15.95;59.76;98564.47;2102529;28;20059;-69
2023/12/09 00:18:28;;;;;;;;;;;;;;;15.84;59.82;98553.22;2102643;28;20048;-68
2023/12/09 00:19:29;;;;;;;;;;;;;;;15.77;60.08;98551.50;2103458;28;19920;-68
2023/12/09 00:20:30;;;;;;;2.75;1.20;;;;;;;15.83;59.97;98559.59;2100032;28;19935;-69
2023/12/09 00:21:32;;;;;;;;;;;;;;;15.77;59.98;98557.69;2101862;28;20087;-70
2023/12/09 00:22:33;;;;;;;2.40;1.48;;;;;;;15.83;60.11;98556.91;2099488;28;19995;-70
2023/12/09 00:23:34;;;;;;;;;;;;;;;15.78;59.94;98561.19;2103398;28;20051;-68
2023/12/09 00:24:35;;;;;;;;;;;;;;;15.70;60.27;98556.75;2102308;28;19928;-68
2023/12/09 00:25:36;;;;;;;2.95;1.05;;;;;;;15.76;60.06;98555.19;2101975;28;19990;-68
2023/12/09 00:26:38;;;;;;;;;;;;;;;15.71;60.15;98563.78;2100328;28;20130;-68
2023/12/09 00:27:39;;;;;;;2.75;1.35;;;;;;;15.77;60.08;98559.53;2101413;28;19931;-69
2023/12/09 00:28:40;;;;;;;;;;;;;;;15.71;60.09;98558.44;2099785;28;20044;-67
2023/12/09 00:29:41;;;;;;;2.20;1.20;;;;;;;15.76;59.97;98566.69;2101247;28;19972;-68
2023/12/09 00:30:44;;;;;;;;;;;;;;;15.72;60.17;98561.94;2102762;28;20043;-68
2023/12/09 00:31:45;;;;;;;2.10;1.10;;;;;;;15.76;60.15;98558.66;2102020;28;19920;-69
2023/12/09 00:32:47;;;;;;;;;;;;;;;15.68;60.24;98557.91;2098221;28;20074;-72
2023/12/09 00:33:48;;;;;;;1.95;1.15;;;;;;;15.71;60.23;98549.56;2103760;28;19928;-69
2023/12/09 00:34:50;;;;;;;;;;;;;;;15.64;60.41;98552.13;2101382;28;20053;-70
2023/12/09 00:35:51;;;;;;;2.45;1.63;;;;;;;15.68;60.31;98555.25;2100964;28;19973;-68
2023/12/09 00:36:52;;;;;;;;;;;;;;;15.63;60.32;98561.16;2100598;28;20041;-68
2023/12/09 00:37:53;;;;;;;;;;;;;;;15.56;60.50;98561.06;2102421;28;19976;-68
2023/12/09 00:38:55;;;;;;;2.08;1.25;;;;;;;15.63;60.44;98553.16;2101709;28;19977;-69
2023/12/09 00:39:56;;;;;;;1.67;1.20;;;;;;;15.68;60.20;98556.09;2098954;28;20048;-68
2023/12/09 00:40:58;;;;;;;;;;;;;;;15.59;60.35;98557.19;2102400;28;20051;-67
2023/12/09 00:41:59;;;;;;;3.08;1.50;;;;;;;15.61;60.34;98556.00;2098537;28;19959;-68
2023/12/09 00:43:01;;;;;;;;;;;;;;;15.56;60.48;98560.25;2100147;28;20051;-70
2023/12/09 00:44:02;;;;;;;1.85;1.27;;;;;;;15.61;60.18;98560.53;2098428;28;20336;-68
2023/12/09 00:45:03;;;;;;;;;;;;;;;15.54;60.46;98562.25;2101213;28;20097;-70
2023/12/09 00:46:06;;;;;;;2.50;1.80;;;;;;;15.57;60.42;98554.72;2100686;28;19924;-70
2023/12/09 00:47:07;;;;;;;3.90;1.38;;;;;;;15.62;60.32;98562.16;2099233;28;20056;-69
2023/12/09 00:48:09;;;;;;;;;;;;;;;15.53;60.40;98568.63;2102044;28;20052;-68
2023/12/09 00:49:09;;;;;;;;;;;;;;;15.48;60.79;98565.69;2101303;28;19928;-69
2023/12/09 00:50:11;;;;;;;1.85;1.35;;;;;;;15.52;60.54;98559.78;2102842;28;19974;-69
2023/12/09 00:51:13;;;;;;;1.80;1.20;;;;;;;15.57;60.45;98556.53;2102721;28;20051;-69
2023/12/09 00:52:15;;;;;;;2.40;1.60;;;;;;;15.59;60.42;98563.38;2104139;28;20060;-68
2023/12/09 00:53:16;;;;;;;1.70;1.23;;;;;;;15.61;60.23;98565.88;2104016;28;20159;-71
2023/12/09 00:54:18;;;;;;;;;;;;;;;15.51;60.44;98566.13;2102299;28;20059;-68
2023/12/09 00:55:18;;;;;;;;;;;;;;;15.39;60.79;98563.09;2101911;28;19928;-68
2023/12/09 00:56:20;;;;;;;1.20;0.95;;;;;;;15.47;60.94;98569.38;2102676;28;19920;-68
2023/12/09 00:57:24;;;;;;;2.97;1.75;;;;;;;15.53;60.37;98566.78;2099419;28;20442;-70
2023/12/09 00:58:26;;;;;;;1.60;1.50;;;;;;;15.54;60.32;98565.75;2100915;28;20069;-69
2023/12/09 00:59:27;;;;;;;1.65;0.82;;;;;;;15.57;60.37;98568.09;2095509;28;20091;-68
2023/12/09 01:00:28;;;;;;;;;;;;;;;15.46;60.40;98565.03;2100293;28;20058;-68
2023/12/09 01:01:30;;;;;;;;;;;;;;;15.40;60.65;98567.41;2098779;28;19928;-69
2023/12/09 01:02:32;;;;;;;1.58;1.02;;;;;;;15.46;60.60;98571.22;2100229;28;19930;-68
2023/12/09 01:03:33;;;;;;;2.17;1.25;;;;;;;15.49;60.51;98567.34;2101565;28;20112;-70
2023/12/09 01:04:35;;;;;;;;;;;;;;;15.40;60.68;98571.94;2102330;28;20047;-69
2023/12/09 01:05:36;;;;;;;2.08;1.50;;;;;;;15.47;60.52;98572.06;2099554;27;19931;-68
2023/12/09 01:06:37;;;;;;;;;;;;;;;15.39;60.66;98576.47;2103496;28;20056;-68
2023/12/09 01:07:38;;;;;;;;;;;;;;;15.31;60.95;98573.06;2100297;28;20768;-69
2023/12/09 01:08:40;;;;;;;2.28;1.35;;;;;;;15.38;60.97;98574.81;2102947;28;19924;-68
2023/12/09 01:09:42;;;;;;;1.67;1.15;;;;;;;15.44;60.55;98577.78;2101271;27;20081;-69
2023/12/09 01:10:44;;;;;;;1.77;1.20;;;;;;;15.46;60.50;98576.56;2098796;28;20071;-68
2023/12/09 01:11:45;;;;;;;1.88;1.10;;;;;;;15.48;60.44;98571.03;2098793;28;20067;-69
2023/12/09 01:12:47;;;;;;;3.15;1.73;;;;;;;15.52;60.32;98572.34;2100291;28;20051;-69
2023/12/09 01:13:48;;;;;;;1.73;1.60;;;;;;;15.51;60.17;98567.97;2100789;28;20092;-69
2023/12/09 01:14:50;;;;;;;;;;;;;;;15.38;60.59;98574.00;2102331;28;20476;-70
2023/12/09 01:15:51;;;;;;;1.90;1.23;;;;;;;15.39;60.64;98568.44;2101568;28;19980;-69
2023/12/09 01:16:53;;;;;;;;;;;;;;;15.32;60.64;98572.88;2101699;28;20093;-68
2023/12/09 01:17:55;;;;;;;1.70;1.60;;;;;;;15.39;60.67;98568.44;2100786;28;19985;-70
2023/12/09 01:18:56;;;;;;;1.88;1.27;;;;;;;15.42;60.57;98572.59;2100294;28;20047;-69
2023/12/09 01:19:58;;;;;;;;;;;;;;;15.32;60.71;98569.34;2101145;28;20067;-68
2023/12/09 01:20:59;;;;;;;1.33;1.15;;;;;;;15.35;60.73;98569.84;2099568;28;20379;-73
2023/12/09 01:22:00;;;;;;;;;;;;;;;15.25;60.82;98574.63;2100147;28;20101;-69
2023/12/09 01:23:02;;;;;;;2.37;0.80;;;;;;;15.31;60.74;98573.88;2102224;28;19978;-69
2023/12/09 01:24:04;;;;;;;2.33;1.45;;;;;;;15.37;60.48;98569.63;2102199;28;20056;-70
2023/12/09 01:25:07;;;;;;;2.22;1.40;;;;;;;15.41;60.52;98571.78;2100741;28;20438;-70
2023/12/09 01:26:08;;;;;;;4.00;1.45;;;;;;;15.40;60.35;98567.41;2100116;28;20044;-69
2023/12/09 01:27:10;;;;;;;;;;;;;;;15.32;60.58;98570.22;2102173;28;20108;-69
2023/12/09 01:28:11;;;;;;;1.48;1.25;;;;;;;15.35;60.60;98577.00;2101289;28;19920;-69
2023/12/09 01:29:12;;;;;;;;;;;;;;;15.26;60.87;98573.59;2100064;28;20105;-72
2023/12/09 01:30:13;;;;;;;;;;;;;;;15.19;60.91;98576.19;2100587;28;19924;-69
2023/12/09 01:31:14;;;;;;;3.28;1.35;;;;;;;15.23;61.00;98576.63;2101152;27;20051;-69
2023/12/09 01:32:17;;;;;;;;;;;;;;;15.20;60.90;98580.50;2098014;28;20048;-69
2023/12/09 01:33:18;;;;;;;1.63;1.00;;;;;;;15.26;60.67;98573.59;2102325;28;20379;-69
2023/12/09 01:34:20;;;;;;;;;;;;;;;15.19;60.92;98578.03;2101721;28;20048;-68
2023/12/09 01:35:20;;;;;;;;;;;;;;;15.11;61.13;98578.09;2100190;28;19924;-69
2023/12/09 01:36:22;;;;;;;1.92;1.30;;;;;;;15.18;60.97;98582.53;2098025;28;19928;-68
2023/12/09 01:37:23;;;;;;;1.40;1.17;;;;;;;15.24;60.46;98578.31;2099454;28;20048;-68
2023/12/09 01:38:25;;;;;;;;;;;;;;;15.15;60.96;98576.72;2100686;28;20093;-69
2023/12/09 01:39:27;;;;;;;1.90;1.10;;;;;;;15.21;60.82;98573.34;2098954;28;19957;-68
2023/12/09 01:40:29;;;;;;;2.58;1.48;;;;;;;15.24;60.68;98572.97;2100556;28;20044;-70
2023/12/09 01:41:29;;;;;;;1.42;0.90;;;;;;;15.28;60.60;98576.09;2101072;28;20056;-68
2023/12/09 01:42:31;;;;;;;;;;;;;;;15.16;60.96;98581.91;2099794;28;20518;-69
2023/12/09 01:43:32;;;;;;;;;;;;;;;15.09;61.07;98580.94;2098237;28;19976;-68
2023/12/09 01:44:34;;;;;;;1.45;1.35;;;;;;;15.14;61.13;98577.75;2098487;28;19980;-68
2023/12/09 01:45:35;;;;;;;2.63;1.65;;;;;;;15.22;60.77;98587.53;2100973;28;20143;-68
2023/12/09 01:46:38;;;;;;;2.53;1.30;;;;;;;15.28;60.58;98584.94;2099632;28;20546;-68
2023/12/09 01:47:41;;;;;;;3.53;1.50;;;;;;;15.33;60.47;98573.72;2101114;28;20063;-68
2023/12/09 01:48:43;;;;;;;2.25;1.33;;;;;;;15.37;60.29;98573.13;2099196;28;20104;-68
2023/12/09 01:49:44;;;;;;;2.47;1.63;;;;;;;15.40;60.21;98578.09;2099225;28;20078;-69
2023/12/09 01:50:47;;;;;;;1.38;1.10;;;;;;;15.45;60.04;98574.06;2096829;28;20043;-69
2023/12/09 01:51:48;;;;;;;1.88;1.40;;;;;;;15.47;59.83;98567.53;2099084;28;20036;-69
2023/12/09 01:52:50;;;;;;;1.88;1.10;;;;;;;15.48;59.82;98574.53;2101526;28;20047;-68
2023/12/09 01:53:51;;;;;;;1.92;1.30;;;;;;;15.51;59.78;98573.31;2099343;28;20044;-68
2023/12/09 01:54:52;;;;;;;1.30;1.20;;;;;;;15.55;59.90;98569.28;2100606;27;20044;-68
2023/12/09 01:55:55;;;;;;;;;;;;;;;15.47;59.95;98577.41;2099625;28;20071;-68
2023/12/09 01:56:58;;;;;;;1.13;0.82;;;;;;;15.52;59.94;98577.69;2098919;28;20434;-69
2023/12/09 01:58:00;;;;;;;1.65;1.20;;;;;;;15.53;59.91;98574.81;2101174;27;20070;-69
2023/12/09 01:59:02;;;;;;;2.58;1.52;;;;;;;15.57;59.84;98576.13;2101036;28;20136;-65
2023/12/09 02:00:03;;;;;;;1.33;1.17;;;;;;;15.58;59.79;98568.91;2101235;28;20522;-69
2023/12/09 02:01:06;;;;;;;2.90;1.60;;;;;;;15.60;59.70;98580.22;2102130;28;20070;-69
2023/12/09 02:02:07;;;;;;;1.38;1.27;;;;;;;15.60;59.66;98581.09;2098447;28;20074;-69
2023/12/09 02:03:11;;;;;;;2.28;1.77;;;;;;;15.61;59.73;98574.72;2100735;28;20509;-69
2023/12/09 02:04:13;;;;;;;2.58;1.50;;;;;;;15.63;59.59;98577.22;2100451;28;20056;-68
2023/12/09 02:05:15;;;;;;;1.70;1.13;;;;;;;15.61;59.64;98577.38;2102350;28;20044;-69
2023/12/09 02:06:16;;;;;;;1.88;1.40;;;;;;;15.62;59.53;98575.53;2098468;28;20047;-70
2023/12/09 02:07:18;;;;;;;;;;;;;;;15.52;59.89;98575.84;2101748;28;20083;-68
2023/12/09 02:08:18;;;;;;;2.05;1.23;;;;;;;15.55;59.77;98579.97;2099283;28;19924;-68
2023/12/09 02:09:20;;;;;;;;;;;;;;;15.48;59.99;98577.19;2097933;28;20048;-70
2023/12/09 02:10:21;;;;;;;2.13;1.55;;;;;;;15.52;60.04;98583.84;2095628;28;19936;-70
2023/12/09 02:11:28;;;;;;;;;;;;;;;15.47;60.01;98580.06;2098940;28;20052;-69
2023/12/09 02:12:36;;;;;;;2.53;1.25;;;;;;;15.52;59.89;98570.47;2100377;28;19924;-70
2023/12/09 02:13:48;;;;;;;2.17;1.00;;;;;;;15.58;59.77;98579.59;2101432;28;20122;-71
2023/12/09 02:14:59;;;;;;;1.67;1.35;;;;;;;15.57;59.71;98575.25;2101295;28;20044;-69
2023/12/09 02:16:06;;;;;;;2.00;1.30;;;;;;;15.60;59.61;98577.56;2099478;28;20055;-68
2023/12/09 02:17:13;;;;;;;2.30;1.38;;;;;;;15.60;59.57;98582.91;2100777;28;20090;-69
2023/12/09 02:18:17;;;;;;;1.42;1.15;;;;;;;15.61;59.69;98581.91;2101088;28;20053;-68
2023/12/09 02:19:19;;;;;;;2.22;1.20;;;;;;;15.61;59.66;98573.88;2101094;28;20483;-69
2023/12/09 02:20:20;;;;;;;1.33;1.17;;;;;;;15.62;59.62;98586.22;2099541;28;20093;-69
2023/12/09 02:21:21;;;;;;;1.65;1.30;;;;;;;15.61;59.59;98584.59;2098540;28;20048;-70
2023/12/09 02:22:23;;;;;;;;;;;;;;;15.54;59.88;98578.31;2098253;28;20056;-69
2023/12/09 02:23:25;;;;;;;;;;;;;;;15.46;60.11;98583.75;2101728;28;19949;-70
2023/12/09 02:24:26;;;;;;;2.85;1.50;;;;;;;15.51;59.91;98578.69;2100047;28;19976;-69
2023/12/09 02:25:28;;;;;;;1.20;1.05;;;;;;;15.56;59.92;98577.09;2096649;28;20444;-69
2023/12/09 02:26:30;;;;;;;1.20;1.10;;;;;;;15.59;59.79;98586.59;2098251;28;21304;-69
2023/12/09 02:27:38;;;;;;;1.52;1.10;;;;;;;15.58;59.65;98584.94;2099643;28;20526;-68
2023/12/09 02:28:46;;;;;;;1.70;1.27;;;;;;;15.59;59.69;98586.59;2099238;28;20426;-69
2023/12/09 02:29:54;;;;;;;1.15;1.05;;;;;;;15.59;59.67;98581.25;2095921;28;20052;-68
2023/12/09 02:31:03;;;;;;;1.67;1.10;;;;;;;15.60;59.59;98582.91;2099135;28;20574;-68
2023/12/09 02:32:08;;;;;;;1.75;1.13;;;;;;;15.59;59.76;98583.94;2098798;28;20062;-69
2023/12/09 02:33:11;;;;;;;2.13;1.27;;;;;;;15.57;59.63;98580.59;2100291;28;20055;-68
2023/12/09 02:34:14;;;;;;;2.38;0.90;;;;;;;15.57;59.75;98580.59;2096566;28;20048;-70
2023/12/09 02:35:18;;;;;;;2.15;0.98;;;;;;;15.58;59.60;98584.94;2097770;28;20741;-69
2023/12/09 02:36:22;;;;;;;1.60;1.27;;;;;;;15.60;59.75;98586.44;2100147;28;20063;-69
2023/12/09 02:37:26;;;;;;;1.67;1.35;;;;;;;15.59;59.73;98591.94;2102474;28;20131;-69
2023/12/09 02:38:31;;;;;;;1.77;1.10;;;;;;;15.57;59.62;98588.63;2098490;28;20391;-68
2023/12/09 02:39:33;;;;;;;2.25;1.30;;;;;;;15.57;59.64;98588.63;2100056;28;20055;-70
2023/12/09 02:40:36;;;;;;;2.22;1.40;;;;;;;15.57;59.71;98588.63;2092568;28;20244;-70
2023/12/09 02:41:37;;;;;;;2.00;1.65;;;;;;;15.57;59.67;98592.16;2101501;28;20041;-68
2023/12/09 02:42:39;;;;;;;;;;;;;;;15.46;59.91;98592.63;2099564;28;20772;-68
2023/12/09 02:43:43;;;;;;;1.40;1.00;;;;;;;15.49;59.79;98586.03;2100145;28;19923;-68
2023/12/09 02:44:46;;;;;;;1.38;1.25;;;;;;;15.50;59.79;98595.75;2100500;28;20651;-68
2023/12/09 02:45:47;;;;;;;0.98;0.98;;;;;;;15.53;59.88;98592.69;2100230;28;20424;-69
2023/12/09 02:46:56;;;;;;;1.38;1.23;;;;;;;15.54;59.76;98589.00;2100175;28;20162;-68
2023/12/09 02:47:57;;;;;;;2.30;1.40;;;;;;;15.53;59.86;98590.84;2098765;28;20052;-69
2023/12/09 02:49:00;;;;;;;;;;;;;;;15.44;60.05;98583.13;2102814;28;20044;-68
2023/12/09 02:50:00;;;;;;;2.38;1.17;;;;;;;15.46;59.76;98591.75;2101776;28;20019;-68
2023/12/09 02:51:02;;;;;;;;;;;;;;;15.38;60.23;98598.88;2101061;28;20426;-66
2023/12/09 02:52:04;;;;;;;1.40;1.30;;;;;;;15.44;60.04;98588.47;2097986;28;19924;-66
2023/12/09 02:53:06;;;;;;;1.70;1.30;;;;;;;15.45;59.90;98592.78;2102001;28;20450;-70
2023/12/09 02:54:08;;;;;;;1.38;1.05;;;;;;;15.46;59.97;98591.75;2102029;27;20048;-69
2023/12/09 02:55:12;;;;;;;1.67;1.42;;;;;;;15.49;59.83;98596.72;2101300;28;20105;-68
2023/12/09 02:56:13;;;;;;;1.27;1.08;;;;;;;15.44;59.97;98604.50;2099396;28;20136;-69
2023/12/09 02:57:14;;;;;;;;;;;;;;;15.35;60.11;98606.41;2101859;28;20052;-68
2023/12/09 02:58:15;;;;;;;;;;;;;;;15.30;60.25;98612.31;2102139;28;20352;-69
2023/12/09 02:59:16;;;;;;;1.25;1.08;;;;;;;15.35;60.33;98611.75;2100492;28;19973;-71
2023/12/09 03:00:17;;;;;;;;;;;;;;;15.28;60.32;98617.00;2100241;28;20048;-69
2023/12/09 03:01:19;;;;;;;1.45;1.00;;;;;;;15.33;60.23;98617.28;2098913;28;19920;-70
2023/12/09 03:02:20;;;;;;;;;;;;;;;15.26;60.45;98615.53;2101030;28;20053;-69
2023/12/09 03:03:21;;;;;;;;;;;;;;;15.19;60.52;98618.09;2101942;28;19928;-69
2023/12/09 03:04:22;;;;;;;1.42;1.00;;;;;;;15.27;60.60;98617.19;2101182;28;19928;-68
2023/12/09 03:05:23;;;;;;;;;;;;;;;15.20;60.60;98625.09;2099998;28;20616;-68
2023/12/09 03:06:24;;;;;;;4.03;1.30;;;;;;;15.25;60.73;98616.53;2100483;28;19946;-70
2023/12/09 03:07:26;;;;;;;;;;;;;;;15.21;60.50;98621.44;2100349;28;20073;-68
2023/12/09 03:08:27;;;;;;;;;;;;;;;15.14;60.63;98618.63;2099253;28;19996;-68
2023/12/09 03:09:30;;;;;;;1.17;1.08;;;;;;;15.22;60.54;98620.41;2099523;28;19958;-69
2023/12/09 03:10:31;;;;;;;1.10;1.00;;;;;;;15.27;60.54;98625.22;2100095;28;20044;-68
2023/12/09 03:11:33;;;;;;;;;;;;;;;15.19;60.48;98629.63;2102800;28;20121;-70
2023/12/09 03:12:33;;;;;;;;;;;;;;;15.14;60.66;98629.31;2099923;28;19928;-68
2023/12/09 03:13:34;;;;;;;1.52;1.13;;;;;;;15.20;60.61;98630.44;2102910;28;19928;-69
2023/12/09 03:14:36;;;;;;;;;;;;;;;15.13;60.73;98629.53;2099202;28;20123;-68
2023/12/09 03:15:36;;;;;;;;;;;;;;;15.09;60.76;98639.72;2100389;28;19928;-69
2023/12/09 03:16:39;;;;;;;2.17;1.08;;;;;;;15.18;60.46;98632.44;2098192;28;19924;-68
2023/12/09 03:17:40;;;;;;;1.13;1.02;;;;;;;15.23;60.44;98640.75;2098775;28;20086;-68
2023/12/09 03:18:41;;;;;;;;;;;;;;;15.15;60.58;98639.00;2099890;28;20082;-68
2023/12/09 03:19:42;;;;;;;2.13;1.20;;;;;;;15.22;60.52;98643.63;2101335;28;19920;-70
2023/12/09 03:20:44;;;;;;;;;;;;;;;15.12;60.63;98644.69;2100950;28;20461;-69
2023/12/09 03:21:45;;;;;;;1.25;1.05;;;;;;;15.19;60.51;98645.66;2101828;28;19924;-69
2023/12/09 03:22:46;;;;;;;;;;;;;;;15.11;60.69;98644.91;2103310;27;20113;-68
2023/12/09 03:23:48;;;;;;;1.52;0.90;;;;;;;15.19;60.51;98647.50;2101623;28;20007;-68
2023/12/09 03:24:51;;;;;;;;;;;;;;;15.09;60.74;98649.56;2098300;28;20079;-68
2023/12/09 03:25:51;;;;;;;1.10;1.00;;;;;;;15.13;60.58;98657.06;2099878;28;20332;-68
2023/12/09 03:26:54;;;;;;;;;;;;;;;15.09;60.65;98660.25;2102011;28;20119;-69
2023/12/09 03:27:54;;;;;;;1.50;1.00;;;;;;;15.14;60.56;98657.88;2098907;28;19924;-69
2023/12/09 03:28:55;;;;;;;;;;;;;;;15.08;60.72;98659.44;2100539;28;20145;-69
2023/12/09 03:29:57;;;;;;;1.63;1.33;;;;;;;15.12;60.63;98662.56;2101516;28;19923;-69
2023/12/09 03:30:58;;;;;;;2.40;1.42;;;;;;;15.16;60.58;98667.38;2099667;28;20297;-69
2023/12/09 03:32:00;;;;;;;;;;;;;;;15.10;60.78;98667.25;2100573;28;20036;-69
2023/12/09 03:33:01;;;;;;;;;;;;;;;15.06;60.82;98679.31;2099708;28;19928;-69
2023/12/09 03:34:03;;;;;;;1.27;1.00;;;;;;;15.09;60.70;98668.28;2095759;28;19974;-69
2023/12/09 03:35:04;;;;;;;1.38;0.93;;;;;;;15.15;60.36;98680.91;2099052;28;20912;-69
2023/12/09 03:36:08;;;;;;;1.55;1.27;;;;;;;15.17;60.49;98679.72;2098238;28;20052;-69
2023/12/09 03:37:09;;;;;;;2.28;1.20;;;;;;;15.18;60.43;98676.06;2097994;28;20056;-68
2023/12/09 03:38:11;;;;;;;;;;;;;;;15.10;60.60;98675.28;2100723;28;20108;-68
2023/12/09 03:39:12;;;;;;;1.55;0.70;;;;;;;15.13;60.64;98674.94;2100344;28;20314;-69
2023/12/09 03:40:16;;;;;;;1.67;0.98;;;;;;;15.19;60.46;98674.22;2097296;28;20091;-69
2023/12/09 03:41:17;;;;;;;0.82;0.73;;;;;;;15.18;60.35;98676.06;2098624;28;20055;-68
2023/12/09 03:42:19;;;;;;;;;;;;;;;15.07;60.46;98673.81;2100976;28;20430;-69
2023/12/09 03:43:19;;;;;;;;;;;;;;;15.01;60.61;98674.50;2101842;28;19924;-68
2023/12/09 03:44:21;;;;;;;2.55;1.30;;;;;;;15.06;60.76;98676.66;2101107;28;19928;-68
2023/12/09 03:45:22;;;;;;;1.75;1.30;;;;;;;15.10;60.65;98668.13;2099144;28;20060;-69
2023/12/09 03:46:24;;;;;;;;;;;;;;;15.02;60.63;98668.19;2100894;28;20044;-68
2023/12/09 03:47:25;;;;;;;1.70;1.15;;;;;;;15.05;60.62;98669.66;2102961;28;19942;-68
2023/12/09 03:48:25;;;;;;;;;;;;;;;15.01;60.83;98674.50;2101971;28;20127;-68
2023/12/09 03:49:27;;;;;;;1.30;1.03;;;;;;;15.03;60.63;98669.81;2103381;28;19916;-68
2023/12/09 03:50:28;;;;;;;1.58;1.10;;;;;;;15.08;60.57;98674.63;2098998;28;20052;-68
2023/12/09 03:51:30;;;;;;;;;;;;;;;15.02;60.59;98676.19;2101530;28;20047;-68
2023/12/09 03:52:30;;;;;;;;;;;;;;;14.92;60.93;98679.09;2101319;28;19928;-70
2023/12/09 03:53:31;;;;;;;0.75;0.75;;;;;;;14.97;60.75;98674.03;2100195;28;19924;-68
2023/12/09 03:54:33;;;;;;;;;;;;;;;14.89;60.93;98676.78;2098083;28;20531;-69
2023/12/09 03:55:35;;;;;;;;;;;;;;;14.87;61.09;98672.63;2099223;28;19928;-68
2023/12/09 03:56:37;;;;;;;1.20;1.02;;;;;;;14.95;60.84;98676.06;2100375;28;19928;-69
2023/12/09 03:57:38;;;;;;;0.90;0.90;;;;;;;15.00;60.79;98682.72;2101581;28;20052;-70
2023/12/09 03:58:40;;;;;;;;;;;;;;;14.93;60.94;98679.91;2103846;28;20048;-68
2023/12/09 03:59:41;;;;;;;1.25;0.80;;;;;;;14.96;60.97;98684.94;2101051;28;19973;-70
2023/12/09 04:00:43;;;;;;;1.02;0.98;;;;;;;15.00;60.75;98686.22;2100315;28;20123;-71
2023/12/09 04:01:48;;;;;;;2.08;1.15;;;;;;;15.02;60.55;98676.19;2102185;28;20100;-69
2023/12/09 04:02:50;;;;;;;1.15;0.90;;;;;;;15.01;60.71;98677.19;2098000;28;20079;-68
2023/12/09 04:03:51;;;;;;;1.23;1.10;;;;;;;15.04;60.59;98676.00;2100856;28;20049;-72
2023/12/09 04:04:53;;;;;;;1.45;0.60;;;;;;;15.01;60.72;98682.53;2101811;28;20039;-70
2023/12/09 04:05:54;;;;;;;2.03;1.13;;;;;;;15.02;60.43;98680.72;2101036;28;20060;-69
2023/12/09 04:06:56;;;;;;;1.52;0.90;;;;;;;15.03;60.20;98685.03;2100889;28;20040;-69
2023/12/09 04:07:57;;;;;;;0.82;0.73;;;;;;;15.04;60.35;98681.34;2101575;28;20093;-68
2023/12/09 04:09:00;;;;;;;;;;;;;;;14.89;60.73;98676.78;2102558;28;20465;-68
2023/12/09 04:10:01;;;;;;;1.70;1.10;;;;;;;14.93;60.74;98683.44;2098365;28;20013;-69
2023/12/09 04:11:04;;;;;;;;;;;;;;;14.85;60.88;98682.63;2097263;28;20506;-68
2023/12/09 04:12:06;;;;;;;3.03;1.27;;;;;;;14.87;60.91;98683.31;2097356;28;20406;-71
2023/12/09 04:13:08;;;;;;;1.40;0.98;;;;;;;14.90;60.91;98681.09;2099258;28;20148;-69
2023/12/09 04:14:09;;;;;;;1.15;0.93;;;;;;;14.92;60.85;98683.59;2100912;28;20116;-69
2023/12/09 04:15:11;;;;;;;1.45;0.77;;;;;;;14.93;60.76;98678.09;2099578;28;20040;-72
2023/12/09 04:16:13;;;;;;;1.38;1.20;;;;;;;14.95;60.61;98683.25;2099383;28;20049;-69
2023/12/09 04:17:14;;;;;;;1.92;1.73;;;;;;;14.93;60.70;98683.44;2099372;28;20147;-70
2023/12/09 04:18:17;;;;;;;;;;;;;;;14.80;61.01;98669.84;2101370;28;20464;-68
2023/12/09 04:19:18;;;;;;;1.35;1.10;;;;;;;14.84;61.03;98665.78;2099418;28;19920;-70
2023/12/09 04:20:19;;;;;;;;;;;;;;;14.77;60.99;98667.53;2098307;28;20503;-69
2023/12/09 04:21:21;;;;;;;2.33;1.08;;;;;;;14.82;61.12;98658.97;2097273;28;19970;-69
2023/12/09 04:22:23;;;;;;;1.58;1.10;;;;;;;14.86;60.89;98655.78;2099847;28;20066;-68
2023/12/09 04:23:24;;;;;;;1.02;0.85;;;;;;;14.83;60.70;98648.13;2100441;28;20521;-71
2023/12/09 04:24:25;;;;;;;1.48;1.20;;;;;;;14.87;60.73;98640.56;2097869;28;20048;-72
2023/12/09 04:25:27;;;;;;;;;;;;;;;14.74;61.17;98638.53;2099378;28;20134;-69
2023/12/09 04:26:30;;;;;;;;;;;;;;;14.70;61.33;98637.19;2101287;28;19932;-68
2023/12/09 04:27:32;;;;;;;1.55;0.88;;;;;;;14.74;61.28;98635.84;2101244;28;20380;-68
2023/12/09 04:28:33;;;;;;;1.30;1.15;;;;;;;14.81;61.01;98641.28;2100127;27;20040;-69
2023/12/09 04:29:34;;;;;;;0.75;0.75;;;;;;;14.84;60.73;98638.25;2097892;28;20131;-68
2023/12/09 04:30:37;;;;;;;;;;;;;;;14.71;61.09;98642.38;2101275;28;20070;-72
2023/12/09 04:31:38;;;;;;;1.08;0.90;;;;;;;14.77;60.92;98646.16;2099759;28;20442;-71
2023/12/09 04:32:41;;;;;;;;;;;;;;;14.70;61.07;98643.38;2102454;28;20059;-69
2023/12/09 04:33:44;;;;;;;1.55;1.00;;;;;;;14.76;61.12;98652.50;2099814;28;19924;-69
2023/12/09 04:34:46;;;;;;;1.25;0.90;;;;;;;14.78;61.00;98647.81;2099615;28;20052;-69
2023/12/09 04:35:47;;;;;;;0.88;0.73;;;;;;;14.81;60.77;98657.31;2100857;28;20067;-68
2023/12/09 04:36:49;;;;;;;1.83;1.17;;;;;;;14.83;60.68;98655.31;2100056;28;20043;-70
2023/12/09 04:37:50;;;;;;;0.95;0.80;;;;;;;14.83;60.89;98661.47;2102063;28;20602;-67
2023/12/09 04:38:51;;;;;;;;;;;;;;;14.71;61.06;98666.41;2101479;28;20048;-65
2023/12/09 04:39:53;;;;;;;1.70;1.00;;;;;;;14.77;60.97;98669.38;2099505;28;19931;-67
2023/12/09 04:40:54;;;;;;;1.10;1.00;;;;;;;14.76;60.84;98671.19;2099033;28;20075;-67
2023/12/09 04:41:57;;;;;;;;;;;;;;;14.66;61.24;98673.28;2100100;28;20056;-67
2023/12/09 04:42:58;;;;;;;1.35;1.20;;;;;;;14.69;61.10;98670.25;2099467;28;20007;-67
2023/12/09 04:44:00;;;;;;;;;;;;;;;14.60;61.35;98668.63;2101119;28;20040;-65
2023/12/09 04:45:01;;;;;;;1.77;1.13;;;;;;;14.66;61.23;98663.44;2098270;28;19931;-65
2023/12/09 04:46:03;;;;;;;;;;;;;;;14.59;61.49;98667.81;2101316;28;20516;-66
2023/12/09 04:47:04;;;;;;;1.00;0.80;;;;;;;14.64;61.22;98662.75;2100168;28;20014;-66
2023/12/09 04:48:05;;;;;;;1.42;1.10;;;;;;;14.68;61.10;98665.91;2099414;28;20166;-68
2023/12/09 04:49:07;;;;;;;1.60;1.30;;;;;;;14.69;61.09;98665.75;2098735;28;20109;-67
2023/12/09 04:50:09;;;;;;;1.45;0.63;;;;;;;14.71;61.13;98668.25;2101590;28;20048;-67
2023/12/09 04:51:11;;;;;;;0.88;0.80;;;;;;;14.71;60.94;98677.09;2094615;28;20106;-67
2023/12/09 04:52:12;;;;;;;1.60;1.08;;;;;;;14.71;60.94;98678.94;2100509;28;20060;-66
2023/12/09 04:53:13;;;;;;;;;;;;;;;14.67;61.14;98680.28;2098738;28;20773;-65
2023/12/09 04:54:15;;;;;;;2.45;1.02;;;;;;;14.65;61.20;98679.59;2101171;28;19941;-68
2023/12/09 04:55:17;;;;;;;1.23;1.08;;;;;;;14.65;61.07;98685.78;2099364;28;20056;-67
2023/12/09 04:56:18;;;;;;;0.90;0.70;;;;;;;14.64;61.12;98677.97;2102022;28;20553;-67
2023/12/09 04:57:21;;;;;;;;;;;;;;;14.53;61.47;98682.69;2098841;28;20052;-66
2023/12/09 04:58:23;;;;;;;1.60;1.10;;;;;;;14.60;61.29;98684.63;2102596;28;19981;-67
2023/12/09 04:59:25;;;;;;;1.05;0.95;;;;;;;14.66;61.15;98683.97;2099749;28;20473;-67
2023/12/09 05:00:26;;;;;;;1.60;1.17;;;;;;;14.68;61.12;98687.25;2102040;28;20063;-67
2023/12/09 05:01:28;;;;;;;0.95;0.88;;;;;;;14.67;61.00;98677.59;2101104;28;20036;-67